Jordan, MN (55352)

4:28 PM CDT on July 30, 2016 (GMT -0500)
APRSWXNET | | Change Station

Elev 931 ft 44.66 °N, 93.52 °W | Updated 40 minutes ago

Mostly Cloudy
Mostly Cloudy
78 °F
Feels Like 80 °F
N
1
Wind Variable Wind from SE
Gusts 3.0 mph

Today
High -- | Low -- °F
--% Chance of Precip.
Yesterday
High -- | Low -- °F
Precip. -- in
Pressure 29.97 in
Visibility 10.0 miles
Clouds Mostly Cloudy 4000 ft
Heat Index 80 °F
Dew Point 65 °F
Humidity 64%
Rainfall in
Snow Depth Not available.
5:59 AM 8:41 PM
Waning Crescent, 11% visible
METAR KFCM 302053Z VRB03KT 10SM BKN040 28/17 A2998 RMK AO2 SLP149 T02780172 56013
Pressure 29.97 in
Visibility 10.0 miles
Clouds Mostly Cloudy 4000 ft
Heat Index 80 °F
Dew Point 65 °F
Humidity 64%
Rainfall in
Snow Depth Not available.
5:59 AM 8:41 PM
Waning Crescent, 11% visible
METAR KFCM 302053Z VRB03KT 10SM BKN040 28/17 A2998 RMK AO2 SLP149 T02780172 56013

10-Day Weather Forecast

Almanac

Astronomy

Jul. 30, 2016 Rise Set
Actual Time
Civil Twilight
Nautical Twilight
Astronomical Twilight
Moon
Length of Visible Light
Length of Day
Tomorrow will be .
, % of the Moon is Illuminated

Today's Extremes

State Highs State Lows

Community

WunderPhotos

Upload Photos

1,928,648 photos uploaded!

WunderBlog® & News

Nearby

Air Quality

  Air Quality AQ Index Pollutant
Not available.

Snow Depth

Station Depth Elevation

Earthquake Activity

City Distance Mag. Time & Date
Minimum magnitude displayed is 2.5.

Coastal Water Temperatures

Place Temperature

Stations

Nearby Weather Stations

Station Location Temp. Windchill Dew Point Humidity Wind Precip. Elev Updated Type
                   

Watches & Warnings

There are currently no watches in effect.